Buoy 52609

sailwx.info

Track history (hours):
 
Tides and Currents Weather Stations Pressure Air Temp Water Temp Dewpoint Dewpoint Depression Visibility Wind Speed Wind Dir Waves Ship Positions

Drifting buoy 52609

Last reported at 2015-May-26 22:00 UTC. Time now 2015-May-27 05:46 UTC.
Position N 17°34' E 125°26'.

Water temperature 29.3 ° C

Date/timePositionNaut miles runAvg speedWind from/ knotsBaromVisibWave heightAir tempDewpointWater temp
2015-May-26 22:00N 17°34' E 125°26'3 1.4 29.3
2015-May-26 20:00N 17°36' E 125°28'0 0.0 29.3
2015-May-26 19:00N 17°36' E 125°28'7 1.1 29.3
2015-May-26 12:00N 17°43' E 125°32'1 0.4 29.4
2015-May-26 09:00N 17°44' E 125°32'0 0.1 29.5
2015-May-26 08:00N 17°44' E 125°32'3 0.7 29.6
2015-May-26 04:00N 17°47' E 125°32'4 0.7 29.5
2015-May-25 22:00N 17°50' E 125°30'1 0.7 29.1
2015-May-25 20:00N 17°52' E 125°29'4 0.5 29.1
2015-May-25 13:00N 17°55' E 125°27'3 0.4 29.2
2015-May-25 05:00N 17°57' E 125°25'0 0.0 29.2
2015-May-25 04:00N 17°57' E 125°25'4 0.6 29.2
2015-May-24 22:00N 17°60' E 125°22'12 0.9 28.9
2015-May-24 08:00N 18°04' E 125°10'2 0.9 28.9
2015-May-24 06:00N 18°05' E 125°09'0 0.0 28.9
2015-May-24 05:00N 18°05' E 125°09'0 0.0 28.9
2015-May-24 04:00N 18°05' E 125°09'7 1.1 28.9
2015-May-23 22:00N 18°03' E 125°02'1 0.6 28.7
2015-May-23 20:00N 18°03' E 125°00'0 0.0 28.8
2015-May-23 19:00N 18°03' E 125°00'0 0.0 28.8
2015-May-23 18:00N 18°03' E 125°00'3 0.5 28.8
2015-May-23 13:00N 18°04' E 124°58'0 0.0 28.8
2015-May-23 12:00N 18°04' E 124°58'4 1.4 28.8
2015-May-23 09:00N 18°03' E 124°53'0 0.0 28.9
2015-May-23 08:00N 18°03' E 124°53'5 0.9 28.9
2015-May-23 02:00N 18°04' E 124°48'2 0.6 28.8
2015-May-22 22:00N 18°03' E 124°46'2 0.5 28.8
2015-May-22 18:00N 18°02' E 124°44'6 0.7 28.8
2015-May-22 10:00N 18°00' E 124°38'1 0.7 28.9
2015-May-22 08:00N 17°59' E 124°37'9 0.8 29.0
2015-May-21 21:00N 17°53' E 124°31'0 0.3 28.8
2015-May-21 20:00N 17°53' E 124°31'2 2.0 28.8
2015-May-21 19:00N 17°51' E 124°31'3 0.3 28.8
2015-May-21 10:00N 17°48' E 124°31'2 0.2 28.8
2015-May-21 01:00N 17°47' E 124°29'3 0.3 28.9
2015-May-20 16:00N 17°44' E 124°28'2 0.5 28.9
2015-May-20 13:00N 17°43' E 124°29'3 0.4 28.9
2015-May-20 06:00N 17°41' E 124°27'3 0.3 29.0
2015-May-19 20:00N 17°38' E 124°27'1 0.3 28.8
2015-May-19 17:00N 17°38' E 124°28'0 0.0 28.8
2015-May-19 16:00N 17°38' E 124°28'1 0.2 28.9
2015-May-19 13:00N 17°37' E 124°28'2 0.4 28.9
2015-May-19 09:00N 17°38' E 124°26'1 0.2 29.1
2015-May-19 06:00N 17°38' E 124°26'1 0.4 29.2
2015-May-19 04:00N 17°37' E 124°25'2 0.9 29.0
2015-May-19 02:00N 17°37' E 124°23'0 0.2 28.9
2015-May-19 01:00N 17°37' E 124°23'0 0.2 28.8
2015-May-19 00:00N 17°37' E 124°23'1 0.3 28.8
2015-May-18 22:00N 17°36' E 124°23'1 0.4 28.8
2015-May-18 20:00N 17°36' E 124°22'0 0.2 28.8
2015-May-18 19:00N 17°36' E 124°22'1 1.0 28.8
2015-May-18 18:00N 17°35' E 124°22'0 0.0 28.9
2015-May-18 17:00N 17°35' E 124°22'2 0.7 28.9
2015-May-18 14:00N 17°32' E 124°22'0 0.4 29.1
2015-May-18 13:00N 17°32' E 124°22'0 0.1 29.1
2015-May-18 11:00N 17°32' E 124°22'0 0.1 29.2
2015-May-18 10:00N 17°32' E 124°22'0 0.3 29.3
2015-May-18 09:00N 17°32' E 124°23'0 0.0 29.4
2015-May-18 08:00N 17°32' E 124°23'0 0.2 29.5
2015-May-18 07:00N 17°32' E 124°23'1 0.6 29.6
2015-May-18 06:00N 17°31' E 124°23'0 0.0 29.5
2015-May-18 04:00N 17°31' E 124°23'1 0.1 29.3
2015-May-17 22:00N 17°31' E 124°23'0 0.2 28.9
2015-May-17 21:00N 17°31' E 124°23'0 0.4 28.9
2015-May-17 20:00N 17°31' E 124°23'1 0.7 28.9
2015-May-17 19:00N 17°30' E 124°23'5 0.6 29.0
2015-May-17 10:00N 17°25' E 124°22'3 0.5 29.8
2015-May-17 04:00N 17°22' E 124°24'3 0.5 29.9
2015-May-16 22:00N 17°20' E 124°26'   28.8
Track history (hours):
 
Tides and Currents Weather Stations Pressure Air Temp Water Temp Dewpoint Dewpoint Depression Visibility Wind Speed Wind Dir Waves Ship Positions

Drifting buoy 52609

Last reported at 2015-May-26 22:00 UTC. Time now 2015-May-27 05:46 UTC.
Position N 17°34' E 125°26'.

Water temperature 29.3 ° C

Date/timePositionNaut miles runAvg speedWind from/ knotsBaromVisibWave heightAir tempDewpointWater temp
2015-May-26 22:00N 17°34' E 125°26'3 1.4 29.3
2015-May-26 20:00N 17°36' E 125°28'0 0.0 29.3
2015-May-26 19:00N 17°36' E 125°28'7 1.1 29.3
2015-May-26 12:00N 17°43' E 125°32'1 0.4 29.4
2015-May-26 09:00N 17°44' E 125°32'0 0.1 29.5
2015-May-26 08:00N 17°44' E 125°32'3 0.7 29.6
2015-May-26 04:00N 17°47' E 125°32'4 0.7 29.5
2015-May-25 22:00N 17°50' E 125°30'1 0.7 29.1
2015-May-25 20:00N 17°52' E 125°29'4 0.5 29.1
2015-May-25 13:00N 17°55' E 125°27'3 0.4 29.2
2015-May-25 05:00N 17°57' E 125°25'0 0.0 29.2
2015-May-25 04:00N 17°57' E 125°25'4 0.6 29.2
2015-May-24 22:00N 17°60' E 125°22'12 0.9 28.9
2015-May-24 08:00N 18°04' E 125°10'2 0.9 28.9
2015-May-24 06:00N 18°05' E 125°09'0 0.0 28.9
2015-May-24 05:00N 18°05' E 125°09'0 0.0 28.9
2015-May-24 04:00N 18°05' E 125°09'7 1.1 28.9
2015-May-23 22:00N 18°03' E 125°02'1 0.6 28.7
2015-May-23 20:00N 18°03' E 125°00'0 0.0 28.8
2015-May-23 19:00N 18°03' E 125°00'0 0.0 28.8
2015-May-23 18:00N 18°03' E 125°00'3 0.5 28.8
2015-May-23 13:00N 18°04' E 124°58'0 0.0 28.8
2015-May-23 12:00N 18°04' E 124°58'4 1.4 28.8
2015-May-23 09:00N 18°03' E 124°53'0 0.0 28.9
2015-May-23 08:00N 18°03' E 124°53'5 0.9 28.9
2015-May-23 02:00N 18°04' E 124°48'2 0.6 28.8
2015-May-22 22:00N 18°03' E 124°46'2 0.5 28.8
2015-May-22 18:00N 18°02' E 124°44'6 0.7 28.8
2015-May-22 10:00N 18°00' E 124°38'1 0.7 28.9
2015-May-22 08:00N 17°59' E 124°37'9 0.8 29.0
2015-May-21 21:00N 17°53' E 124°31'0 0.3 28.8
2015-May-21 20:00N 17°53' E 124°31'2 2.0 28.8
2015-May-21 19:00N 17°51' E 124°31'3 0.3 28.8
2015-May-21 10:00N 17°48' E 124°31'2 0.2 28.8
2015-May-21 01:00N 17°47' E 124°29'3 0.3 28.9
2015-May-20 16:00N 17°44' E 124°28'2 0.5 28.9
2015-May-20 13:00N 17°43' E 124°29'3 0.4 28.9
2015-May-20 06:00N 17°41' E 124°27'3 0.3 29.0
2015-May-19 20:00N 17°38' E 124°27'1 0.3 28.8
2015-May-19 17:00N 17°38' E 124°28'0 0.0 28.8
2015-May-19 16:00N 17°38' E 124°28'1 0.2 28.9
2015-May-19 13:00N 17°37' E 124°28'2 0.4 28.9
2015-May-19 09:00N 17°38' E 124°26'1 0.2 29.1
2015-May-19 06:00N 17°38' E 124°26'1 0.4 29.2
2015-May-19 04:00N 17°37' E 124°25'2 0.9 29.0
2015-May-19 02:00N 17°37' E 124°23'0 0.2 28.9
2015-May-19 01:00N 17°37' E 124°23'0 0.2 28.8
2015-May-19 00:00N 17°37' E 124°23'1 0.3 28.8
2015-May-18 22:00N 17°36' E 124°23'1 0.4 28.8
2015-May-18 20:00N 17°36' E 124°22'0 0.2 28.8
2015-May-18 19:00N 17°36' E 124°22'1 1.0 28.8
2015-May-18 18:00N 17°35' E 124°22'0 0.0 28.9
2015-May-18 17:00N 17°35' E 124°22'2 0.7 28.9
2015-May-18 14:00N 17°32' E 124°22'0 0.4 29.1
2015-May-18 13:00N 17°32' E 124°22'0 0.1 29.1
2015-May-18 11:00N 17°32' E 124°22'0 0.1 29.2
2015-May-18 10:00N 17°32' E 124°22'0 0.3 29.3
2015-May-18 09:00N 17°32' E 124°23'0 0.0 29.4
2015-May-18 08:00N 17°32' E 124°23'0 0.2 29.5
2015-May-18 07:00N 17°32' E 124°23'1 0.6 29.6
2015-May-18 06:00N 17°31' E 124°23'0 0.0 29.5
2015-May-18 04:00N 17°31' E 124°23'1 0.1 29.3
2015-May-17 22:00N 17°31' E 124°23'0 0.2 28.9
2015-May-17 21:00N 17°31' E 124°23'0 0.4 28.9
2015-May-17 20:00N 17°31' E 124°23'1 0.7 28.9
2015-May-17 19:00N 17°30' E 124°23'5 0.6 29.0
2015-May-17 10:00N 17°25' E 124°22'3 0.5 29.8
2015-May-17 04:00N 17°22' E 124°24'3 0.5 29.9
2015-May-16 22:00N 17°20' E 124°26'   28.8

Dump ship's entire track history